Time;durP1;ratioP1;P1;durP2;ratioP2;P2;SDS_P1;SDS_P2;PMS_P1;PMS_P2;Temp;Humidity;BMP_temperature;BMP_pressure;BME280_temperature;BME280_humidity;BME280_pressure;Samples;Min_cycle;Max_cycle;Signal;HPM_P1;HPM_P2
2023/09/03 00:00:22;;;;;;;475.15;460.42;;;;;;;;;;5004056;28;20174;-90
2023/09/03 00:02:48;;;;;;;488.90;473.65;;;;;;;;;;5022864;28;20184;-90
2023/09/03 00:05:14;;;;;;;448.92;435.23;;;;;;;;;;5019857;28;20227;-90
2023/09/03 00:07:40;;;;;;;480.92;466.00;;;;;;;;;;5004019;28;20188;-89
2023/09/03 00:10:07;;;;;;;475.10;460.15;;;;;;;;;;5001867;28;20193;-90
2023/09/03 00:12:33;;;;;;;379.92;368.60;;;;;;;;;;5011249;28;20570;-90
2023/09/03 00:14:59;;;;;;;393.80;382.05;;;;;;;;;;5000032;28;20233;-89
2023/09/03 00:17:25;;;;;;;373.42;362.35;;;;;;;;;;4988545;28;20182;-90
2023/09/03 00:19:51;;;;;;;359.83;349.27;;;;;;;;;;4999656;28;20181;-89
2023/09/03 00:22:17;;;;;;;349.48;339.17;;;;;;;;;;5000073;28;20186;-90
2023/09/03 00:24:43;;;;;;;344.50;334.30;;;;;;;;;;5000660;28;20307;-90
2023/09/03 00:27:09;;;;;;;322.65;313.05;;;;;;;;;;5001679;28;20224;-90
2023/09/03 00:29:36;;;;;;;294.77;286.00;;;;;;;;;;5002067;28;20185;-91
2023/09/03 00:32:03;;;;;;;311.00;302.05;;;;;;;;;;5004752;28;20179;-89
2023/09/03 00:34:30;;;;;;;299.95;291.27;;;;;;;;;;5001571;28;20221;-90
2023/09/03 00:36:56;;;;;;;297.33;288.67;;;;;;;;;;5001441;28;20174;-91
2023/09/03 00:39:22;;;;;;;307.92;298.52;;;;;;;;;;4985599;28;20460;-90
2023/09/03 00:41:48;;;;;;;295.55;287.00;;;;;;;;;;5021761;28;20181;-90
2023/09/03 00:44:15;;;;;;;332.10;322.48;;;;;;;;;;5021918;28;20213;-90
2023/09/03 00:46:44;;;;;;;355.98;345.25;;;;;;;;;;5021362;28;20281;-89
2023/09/03 00:49:14;;;;;;;391.17;379.25;;;;;;;;;;5015063;28;20264;-90
2023/09/03 00:51:40;;;;;;;564.58;545.58;;;;;;;;;;5021756;28;20276;-89
2023/09/03 00:54:07;;;;;;;577.20;557.67;;;;;;;;;;5014304;28;20263;-91
2023/09/03 00:56:33;;;;;;;610.63;589.58;;;;;;;;;;5017029;28;20587;-90
2023/09/03 00:59:00;;;;;;;612.88;591.45;;;;;;;;;;5019719;28;20193;-91
2023/09/03 01:01:27;;;;;;;631.58;609.45;;;;;;;;;;5020276;28;20165;-90
2023/09/03 01:03:56;;;;;;;638.70;616.10;;;;;;;;;;5019846;28;20202;-90
2023/09/03 01:06:22;;;;;;;623.70;601.75;;;;;;;;;;5019261;28;20189;-89
2023/09/03 01:08:48;;;;;;;628.70;606.08;;;;;;;;;;5017720;28;20631;-89
2023/09/03 01:11:26;;;;;;;634.38;611.53;;;;;;;;;;5017961;28;20205;-89
2023/09/03 01:14:05;;;;;;;624.97;602.88;;;;;;;;;;4998413;28;20207;-90
2023/09/03 01:16:33;;;;;;;617.05;595.63;;;;;;;;;;5000081;28;20186;-89
2023/09/03 01:19:01;;;;;;;628.03;606.05;;;;;;;;;;5008647;28;20204;-90
2023/09/03 01:21:48;;;;;;;610.47;589.38;;;;;;;;;;5020276;28;20189;-89
2023/09/03 01:24:32;;;;;;;596.50;576.03;;;;;;;;;;5019629;28;20213;-90
2023/09/03 01:27:34;;;;;;;606.13;585.33;;;;;;;;;;5000279;28;20213;-90
2023/09/03 01:30:00;;;;;;;533.00;515.60;;;;;;;;;;4931352;29;20190;-90
2023/09/03 01:32:27;;;;;;;535.10;517.80;;;;;;;;;;4987931;28;20194;-90
2023/09/03 01:34:54;;;;;;;546.45;528.53;;;;;;;;;;4998887;28;20356;-90
2023/09/03 01:37:20;;;;;;;542.03;523.67;;;;;;;;;;4999600;28;20212;-90
2023/09/03 01:39:46;;;;;;;547.22;529.17;;;;;;;;;;4999854;28;20673;-91
2023/09/03 01:42:12;;;;;;;548.10;530.20;;;;;;;;;;5004514;28;20181;-89
2023/09/03 01:44:39;;;;;;;562.25;543.50;;;;;;;;;;5018914;28;20259;-89
2023/09/03 01:47:11;;;;;;;610.88;589.72;;;;;;;;;;4998871;28;20220;-90
2023/09/03 01:49:47;;;;;;;611.95;590.83;;;;;;;;;;5000336;28;20183;-92
2023/09/03 01:52:13;;;;;;;615.42;594.17;;;;;;;;;;4999053;28;20190;-91
2023/09/03 01:54:40;;;;;;;614.63;593.08;;;;;;;;;;5006998;28;20348;-89
2023/09/03 01:57:11;;;;;;;632.80;610.30;;;;;;;;;;5016191;28;20182;-89
2023/09/03 01:59:44;;;;;;;623.90;601.67;;;;;;;;;;5014024;28;20188;-89
2023/09/03 02:02:11;;;;;;;641.83;618.97;;;;;;;;;;5020212;28;20201;-90
2023/09/03 02:04:37;;;;;;;630.67;608.47;;;;;;;;;;5021790;28;20248;-90
2023/09/03 02:07:04;;;;;;;631.42;609.15;;;;;;;;;;5028829;28;20192;-90
2023/09/03 02:09:30;;;;;;;645.67;622.90;;;;;;;;;;5017907;28;20194;-91
2023/09/03 02:11:56;;;;;;;622.90;601.15;;;;;;;;;;5018461;28;20241;-91
2023/09/03 02:14:23;;;;;;;622.03;600.28;;;;;;;;;;4998298;28;20202;-90
2023/09/03 02:16:52;;;;;;;631.70;609.70;;;;;;;;;;4999961;28;20174;-90
2023/09/03 02:19:18;;;;;;;637.15;614.60;;;;;;;;;;5004285;28;20205;-90
2023/09/03 02:21:44;;;;;;;643.42;619.65;;;;;;;;;;5006699;28;20186;-89
2023/09/03 02:24:13;;;;;;;617.75;595.88;;;;;;;;;;4985911;28;20216;-89
2023/09/03 02:26:43;;;;;;;627.65;605.63;;;;;;;;;;5002219;28;20186;-90
2023/09/03 02:29:09;;;;;;;621.30;599.53;;;;;;;;;;5015455;28;20225;-90
2023/09/03 02:31:35;;;;;;;619.85;598.35;;;;;;;;;;5019710;28;20200;-90
2023/09/03 02:34:03;;;;;;;586.25;566.22;;;;;;;;;;5019441;28;20236;-91
2023/09/03 02:36:30;;;;;;;543.22;525.28;;;;;;;;;;5006283;28;20188;-90
2023/09/03 02:39:03;;;;;;;544.92;526.92;;;;;;;;;;5023762;28;20177;-90
2023/09/03 02:41:32;;;;;;;550.92;532.67;;;;;;;;;;5021421;28;20185;-90
2023/09/03 02:43:59;;;;;;;519.38;502.65;;;;;;;;;;5023234;28;20240;-90
2023/09/03 02:46:26;;;;;;;531.80;514.50;;;;;;;;;;5023835;28;20209;-91
2023/09/03 02:48:55;;;;;;;530.67;513.55;;;;;;;;;;5023205;28;20209;-89
2023/09/03 02:51:21;;;;;;;531.53;514.20;;;;;;;;;;5024828;28;20192;-90
2023/09/03 02:53:47;;;;;;;530.75;513.67;;;;;;;;;;5023125;28;20217;-90
2023/09/03 02:56:14;;;;;;;537.88;520.17;;;;;;;;;;5023728;28;20254;-90
2023/09/03 02:58:41;;;;;;;549.17;530.92;;;;;;;;;;5022964;28;20195;-90
2023/09/03 03:01:07;;;;;;;552.03;533.60;;;;;;;;;;4988890;28;20186;-90
2023/09/03 03:03:33;;;;;;;541.05;523.75;;;;;;;;;;5025271;28;20355;-90
2023/09/03 03:05:59;;;;;;;557.65;538.65;;;;;;;;;;5034182;28;20184;-89
2023/09/03 03:08:25;;;;;;;539.85;522.08;;;;;;;;;;5036867;28;20176;-89
2023/09/03 03:10:52;;;;;;;525.20;508.13;;;;;;;;;;5054905;28;20215;-90
2023/09/03 03:13:18;;;;;;;499.20;483.30;;;;;;;;;;5056609;28;20207;-89
2023/09/03 03:15:46;;;;;;;520.63;503.67;;;;;;;;;;5042267;28;20194;-90
2023/09/03 03:18:12;;;;;;;504.50;488.30;;;;;;;;;;5023376;28;20270;-90
2023/09/03 03:20:38;;;;;;;522.53;505.80;;;;;;;;;;5005332;28;20224;-90
2023/09/03 03:23:04;;;;;;;519.92;503.13;;;;;;;;;;5022508;28;20188;-90
2023/09/03 03:25:30;;;;;;;527.17;510.02;;;;;;;;;;5022796;28;20209;-90
2023/09/03 03:27:56;;;;;;;537.10;519.60;;;;;;;;;;5023890;28;20581;-90
2023/09/03 03:30:22;;;;;;;574.47;554.97;;;;;;;;;;5023545;28;20193;-90
2023/09/03 03:32:48;;;;;;;580.92;561.10;;;;;;;;;;5015257;28;20221;-92
2023/09/03 03:35:15;;;;;;;588.53;567.90;;;;;;;;;;5020771;28;20225;-90
2023/09/03 03:37:41;;;;;;;550.78;532.47;;;;;;;;;;5004277;28;20185;-90
2023/09/03 03:40:07;;;;;;;565.70;546.65;;;;;;;;;;5004677;28;20192;-91
2023/09/03 03:42:33;;;;;;;560.55;541.83;;;;;;;;;;5023259;28;20202;-90
2023/09/03 03:44:59;;;;;;;527.08;509.95;;;;;;;;;;5004913;28;20359;-91
2023/09/03 03:47:25;;;;;;;530.05;512.53;;;;;;;;;;5022353;28;20236;-90
2023/09/03 03:49:51;;;;;;;531.90;514.63;;;;;;;;;;5009138;28;20189;-90
2023/09/03 03:52:17;;;;;;;517.13;500.20;;;;;;;;;;5003296;28;20268;-90
2023/09/03 03:54:43;;;;;;;541.20;523.10;;;;;;;;;;5005004;28;20213;-90
2023/09/03 03:57:09;;;;;;;533.10;515.58;;;;;;;;;;5014666;28;20175;-89
2023/09/03 03:59:36;;;;;;;555.28;536.97;;;;;;;;;;5001549;28;20177;-90
2023/09/03 04:02:02;;;;;;;572.17;553.13;;;;;;;;;;5020802;28;20202;-91
2023/09/03 04:04:28;;;;;;;590.47;570.17;;;;;;;;;;5019396;28;20205;-90
2023/09/03 04:06:54;;;;;;;579.70;560.38;;;;;;;;;;5019289;28;20435;-89
2023/09/03 04:09:20;;;;;;;607.75;587.05;;;;;;;;;;5020230;28;20177;-90
2023/09/03 04:11:48;;;;;;;592.20;571.92;;;;;;;;;;5021188;28;20182;-92
2023/09/03 04:14:14;;;;;;;593.22;573.17;;;;;;;;;;5022795;28;20205;-89
2023/09/03 04:16:41;;;;;;;586.22;566.35;;;;;;;;;;5022600;28;20180;-90
2023/09/03 04:19:07;;;;;;;606.42;585.53;;;;;;;;;;5022516;28;20188;-90
2023/09/03 04:21:33;;;;;;;607.03;586.15;;;;;;;;;;5021003;28;20223;-88
2023/09/03 04:23:59;;;;;;;600.70;580.42;;;;;;;;;;5022479;28;20277;-89
2023/09/03 04:26:25;;;;;;;597.75;577.08;;;;;;;;;;5022111;28;20198;-90
2023/09/03 04:28:51;;;;;;;593.63;573.40;;;;;;;;;;5004136;28;20207;-90
2023/09/03 04:31:17;;;;;;;580.45;560.58;;;;;;;;;;5005128;28;20661;-90
2023/09/03 04:33:44;;;;;;;595.97;575.00;;;;;;;;;;5022419;28;20259;-90
2023/09/03 04:36:10;;;;;;;605.22;583.83;;;;;;;;;;5004212;28;20200;-90
2023/09/03 04:38:36;;;;;;;591.40;571.38;;;;;;;;;;5003001;28;20175;-89
2023/09/03 04:41:04;;;;;;;582.65;562.83;;;;;;;;;;5020425;28;20196;-90
2023/09/03 04:43:30;;;;;;;595.58;575.22;;;;;;;;;;5020587;28;20288;-90
2023/09/03 04:45:56;;;;;;;594.17;573.05;;;;;;;;;;5020075;28;20186;-89
2023/09/03 04:48:22;;;;;;;595.65;575.40;;;;;;;;;;5003372;28;20251;-90
2023/09/03 04:50:48;;;;;;;585.60;565.63;;;;;;;;;;5019992;28;20184;-90
2023/09/03 04:53:15;;;;;;;566.33;547.17;;;;;;;;;;5019932;28;20189;-89
2023/09/03 04:55:41;;;;;;;540.00;522.33;;;;;;;;;;5019816;28;20208;-88
2023/09/03 04:58:08;;;;;;;518.33;501.38;;;;;;;;;;5020258;28;20674;-89
2023/09/03 05:00:34;;;;;;;504.90;488.67;;;;;;;;;;5021728;28;20272;-91
2023/09/03 05:03:04;;;;;;;512.03;495.15;;;;;;;;;;5020417;28;20171;-91
2023/09/03 05:05:31;;;;;;;521.72;504.73;;;;;;;;;;5002688;28;20461;-89
2023/09/03 05:07:57;;;;;;;512.72;496.17;;;;;;;;;;5019407;28;20185;-89
2023/09/03 05:10:23;;;;;;;485.60;470.23;;;;;;;;;;5010384;28;20207;-90
2023/09/03 05:12:49;;;;;;;523.60;506.77;;;;;;;;;;5000689;28;20189;-90
2023/09/03 05:15:15;;;;;;;522.95;505.83;;;;;;;;;;4991556;28;20709;-89
2023/09/03 05:17:41;;;;;;;507.50;491.35;;;;;;;;;;4999989;28;20201;-90
2023/09/03 05:20:10;;;;;;;505.83;489.70;;;;;;;;;;5007089;28;20717;-91
2023/09/03 05:22:38;;;;;;;529.67;512.63;;;;;;;;;;5002188;28;20178;-91
2023/09/03 05:25:04;;;;;;;572.65;552.95;;;;;;;;;;5019855;28;20695;-90
2023/09/03 05:27:30;;;;;;;588.40;568.45;;;;;;;;;;5020151;28;20205;-90
2023/09/03 05:29:57;;;;;;;549.20;530.55;;;;;;;;;;5002196;28;20299;-90
2023/09/03 05:32:23;;;;;;;566.30;547.10;;;;;;;;;;5001444;28;20185;-90
2023/09/03 05:34:58;;;;;;;534.90;517.50;;;;;;;;;;5018603;28;20220;-89
2023/09/03 05:37:24;;;;;;;510.73;494.05;;;;;;;;;;5019927;28;20181;-91
2023/09/03 05:39:51;;;;;;;542.33;524.65;;;;;;;;;;5019706;28;20181;-92
2023/09/03 05:42:17;;;;;;;545.10;526.95;;;;;;;;;;5019878;28;20173;-90
2023/09/03 05:44:43;;;;;;;573.13;553.78;;;;;;;;;;5023300;28;20216;-89
2023/09/03 05:47:13;;;;;;;590.92;570.38;;;;;;;;;;5030854;28;20185;-91
2023/09/03 05:49:39;;;;;;;603.97;583.22;;;;;;;;;;5011390;28;20253;-91
2023/09/03 05:52:06;;;;;;;614.22;592.67;;;;;;;;;;4997569;28;20261;-89
2023/09/03 05:54:32;;;;;;;618.35;596.45;;;;;;;;;;4998726;28;20198;-91
2023/09/03 05:56:58;;;;;;;577.53;557.92;;;;;;;;;;4998033;28;20197;-90
2023/09/03 05:59:24;;;;;;;619.53;597.00;;;;;;;;;;5013393;28;20792;-89
2023/09/03 06:01:50;;;;;;;628.75;606.20;;;;;;;;;;5018102;28;20181;-93
2023/09/03 06:04:16;;;;;;;597.42;576.45;;;;;;;;;;5017573;28;20627;-90
2023/09/03 06:06:43;;;;;;;618.78;596.72;;;;;;;;;;5014483;28;20182;-90
2023/09/03 06:09:09;;;;;;;618.95;597.13;;;;;;;;;;5001845;28;20181;-90
2023/09/03 06:11:35;;;;;;;633.38;609.90;;;;;;;;;;5029053;28;20197;-90
2023/09/03 06:14:01;;;;;;;613.25;591.58;;;;;;;;;;5019095;28;20286;-93
2023/09/03 06:16:28;;;;;;;602.25;581.13;;;;;;;;;;5001969;28;20203;-90
2023/09/03 06:18:54;;;;;;;598.47;577.95;;;;;;;;;;5020433;28;20204;-89
2023/09/03 06:21:20;;;;;;;588.40;568.42;;;;;;;;;;5019838;28;20166;-92
2023/09/03 06:23:46;;;;;;;576.42;556.70;;;;;;;;;;5002033;28;20260;-89
2023/09/03 06:26:13;;;;;;;572.92;553.25;;;;;;;;;;5001311;28;20189;-90
2023/09/03 06:28:40;;;;;;;578.47;558.60;;;;;;;;;;5025415;28;20188;-91
2023/09/03 06:31:06;;;;;;;590.20;569.85;;;;;;;;;;5040234;28;20181;-89
2023/09/03 06:33:32;;;;;;;578.83;559.08;;;;;;;;;;5022427;28;20827;-90
2023/09/03 06:35:58;;;;;;;603.47;582.47;;;;;;;;;;5001074;28;20217;-88
2023/09/03 06:38:24;;;;;;;620.63;598.53;;;;;;;;;;5017841;28;20180;-90
2023/09/03 06:40:51;;;;;;;629.53;606.95;;;;;;;;;;5015137;28;20176;-89
2023/09/03 06:43:17;;;;;;;618.72;596.83;;;;;;;;;;5016052;28;20188;-89
2023/09/03 06:45:43;;;;;;;620.53;598.42;;;;;;;;;;5017629;28;20212;-91
2023/09/03 06:48:09;;;;;;;602.92;582.03;;;;;;;;;;5000964;28;20192;-90
2023/09/03 06:50:42;;;;;;;585.10;565.03;;;;;;;;;;5017647;28;20173;-92
2023/09/03 06:53:08;;;;;;;577.75;557.95;;;;;;;;;;5000745;28;20490;-91
2023/09/03 06:55:34;;;;;;;577.28;557.78;;;;;;;;;;5017879;28;20223;-91
2023/09/03 06:58:01;;;;;;;568.13;548.88;;;;;;;;;;5012314;28;20192;-90
2023/09/03 07:00:27;;;;;;;588.88;568.65;;;;;;;;;;5017350;28;20252;-90
2023/09/03 07:02:53;;;;;;;601.75;580.47;;;;;;;;;;5015361;28;20186;-91
2023/09/03 07:05:19;;;;;;;596.05;575.65;;;;;;;;;;5018080;28;20241;-92
2023/09/03 07:07:45;;;;;;;606.95;585.45;;;;;;;;;;5018728;28;20205;-89
2023/09/03 07:10:11;;;;;;;617.17;595.28;;;;;;;;;;5030104;28;20200;-88
2023/09/03 07:12:37;;;;;;;629.72;607.38;;;;;;;;;;5021712;28;20937;-91
2023/09/03 07:15:04;;;;;;;622.65;600.65;;;;;;;;;;5009816;28;20215;-90
2023/09/03 07:17:30;;;;;;;642.33;618.97;;;;;;;;;;4999935;28;20189;-92
2023/09/03 07:19:56;;;;;;;629.20;606.60;;;;;;;;;;5001108;28;20213;-92
2023/09/03 07:22:22;;;;;;;616.92;595.38;;;;;;;;;;5012676;28;20186;-91
2023/09/03 07:24:52;;;;;;;640.28;616.90;;;;;;;;;;5015983;28;20206;-90
2023/09/03 07:27:18;;;;;;;626.28;603.85;;;;;;;;;;5003630;28;20178;-91
2023/09/03 07:29:44;;;;;;;635.05;611.97;;;;;;;;;;5003340;28;20519;-92
2023/09/03 07:32:10;;;;;;;647.10;623.33;;;;;;;;;;5012982;28;20173;-91
2023/09/03 07:34:36;;;;;;;653.33;629.45;;;;;;;;;;5012198;28;20358;-92
2023/09/03 07:37:02;;;;;;;659.55;634.47;;;;;;;;;;5009029;28;20189;-89
2023/09/03 07:39:31;;;;;;;670.28;645.25;;;;;;;;;;5025510;28;20271;-90
2023/09/03 07:41:59;;;;;;;651.55;627.63;;;;;;;;;;5022290;28;20216;-91
2023/09/03 07:44:25;;;;;;;667.60;642.45;;;;;;;;;;5010794;28;20272;-89
2023/09/03 07:46:51;;;;;;;667.33;642.47;;;;;;;;;;4999243;28;20233;-90
2023/09/03 07:49:17;;;;;;;655.10;630.47;;;;;;;;;;5004462;28;20197;-94
2023/09/03 07:51:43;;;;;;;668.78;643.42;;;;;;;;;;5001916;28;20178;-91
2023/09/03 07:54:09;;;;;;;572.38;552.70;;;;;;;;;;5001829;28;20217;-90
2023/09/03 07:56:35;;;;;;;568.35;548.67;;;;;;;;;;5019927;28;20236;-89
2023/09/03 07:59:01;;;;;;;561.75;542.83;;;;;;;;;;5021392;28;20181;-91
2023/09/03 08:01:27;;;;;;;615.70;594.22;;;;;;;;;;5023155;28;20826;-91
2023/09/03 08:03:53;;;;;;;629.05;606.42;;;;;;;;;;5022527;28;20306;-90
2023/09/03 08:06:19;;;;;;;650.30;626.80;;;;;;;;;;5018468;28;20239;-92
2023/09/03 08:08:53;;;;;;;665.72;641.38;;;;;;;;;;5003986;28;20182;-92
2023/09/03 08:11:19;;;;;;;655.95;632.15;;;;;;;;;;5021818;28;20647;-89
2023/09/03 08:13:45;;;;;;;674.47;649.55;;;;;;;;;;5021168;28;20915;-89
2023/09/03 08:16:11;;;;;;;662.35;637.88;;;;;;;;;;5020433;28;20178;-90
2023/09/03 08:18:37;;;;;;;670.97;646.15;;;;;;;;;;5020823;28;20188;-92
2023/09/03 08:21:03;;;;;;;665.80;641.25;;;;;;;;;;5020155;28;20248;-90
2023/09/03 08:23:29;;;;;;;658.33;634.33;;;;;;;;;;5003695;28;20195;-92
2023/09/03 08:25:56;;;;;;;659.40;635.50;;;;;;;;;;5005017;28;20279;-91
2023/09/03 08:28:22;;;;;;;684.97;659.15;;;;;;;;;;5025658;28;20195;-90
2023/09/03 08:30:48;;;;;;;672.15;647.30;;;;;;;;;;5023307;28;20195;-93
2023/09/03 08:33:14;;;;;;;667.30;642.42;;;;;;;;;;5022210;28;20177;-91
2023/09/03 08:35:40;;;;;;;670.08;645.35;;;;;;;;;;5017852;28;20215;-90
2023/09/03 08:38:06;;;;;;;670.85;646.20;;;;;;;;;;5019505;28;20290;-91
2023/09/03 08:40:33;;;;;;;639.45;616.83;;;;;;;;;;5021392;28;20168;-91
2023/09/03 08:42:59;;;;;;;615.97;594.53;;;;;;;;;;5020826;28;20180;-90
2023/09/03 08:45:28;;;;;;;634.67;612.17;;;;;;;;;;5020435;28;20800;-92
2023/09/03 08:47:59;;;;;;;652.42;629.03;;;;;;;;;;5020251;28;20241;-92
2023/09/03 08:50:31;;;;;;;651.17;627.65;;;;;;;;;;5016278;28;20189;-94
2023/09/03 08:53:06;;;;;;;642.10;619.42;;;;;;;;;;5011221;28;20190;-95
2023/09/03 08:55:34;;;;;;;668.35;643.72;;;;;;;;;;4989397;28;20206;-95
2023/09/03 08:58:07;;;;;;;661.00;637.10;;;;;;;;;;5021444;28;20207;-93
2023/09/03 09:00:34;;;;;;;611.53;590.00;;;;;;;;;;5001131;28;20257;-94
2023/09/03 09:03:03;;;;;;;668.60;644.08;;;;;;;;;;5011417;28;20203;-93
2023/09/03 09:05:30;;;;;;;683.35;658.33;;;;;;;;;;5008444;28;20491;-92
2023/09/03 09:07:56;;;;;;;663.72;639.80;;;;;;;;;;5002467;28;20198;-93
2023/09/03 09:10:28;;;;;;;586.47;566.88;;;;;;;;;;5001886;28;20228;-90
2023/09/03 09:13:03;;;;;;;569.17;549.88;;;;;;;;;;5020320;28;20189;-92
2023/09/03 09:18:20;;;;;;;618.40;597.00;;;;;;;;;;5016036;28;20204;-91
2023/09/03 09:20:47;;;;;;;598.08;577.70;;;;;;;;;;5009304;28;20175;-92
2023/09/03 09:23:24;;;;;;;612.90;591.65;;;;;;;;;;5016724;28;20162;-91
2023/09/03 09:25:59;;;;;;;588.42;568.30;;;;;;;;;;5007627;28;20173;-91
2023/09/03 09:31:56;;;;;;;608.55;587.63;;;;;;;;;;4998416;28;20201;-91
2023/09/03 09:34:28;;;;;;;654.63;630.60;;;;;;;;;;4968161;28;20226;-92
2023/09/03 09:36:56;;;;;;;672.65;648.00;;;;;;;;;;5012126;28;20178;-93
2023/09/03 09:39:25;;;;;;;620.20;598.35;;;;;;;;;;5010131;28;20192;-92
2023/09/03 09:44:51;;;;;;;653.47;630.20;;;;;;;;;;5039294;22;20232;-93
2023/09/03 09:47:19;;;;;;;573.47;554.72;;;;;;;;;;5030012;28;20186;-93
2023/09/03 09:49:45;;;;;;;580.40;560.92;;;;;;;;;;5035098;28;20189;-94
2023/09/03 09:52:12;;;;;;;608.42;587.60;;;;;;;;;;5019000;28;20201;-92
2023/09/03 09:54:42;;;;;;;564.78;546.10;;;;;;;;;;5037956;28;20216;-94
2023/09/03 09:57:19;;;;;;;568.63;549.80;;;;;;;;;;5038498;28;20169;-92
2023/09/03 09:59:51;;;;;;;632.22;609.50;;;;;;;;;;5044809;28;20189;-91
2023/09/03 10:02:17;;;;;;;604.90;583.92;;;;;;;;;;5039608;28;20196;-92
2023/09/03 10:04:44;;;;;;;558.47;539.92;;;;;;;;;;5038221;28;20173;-91
2023/09/03 10:07:10;;;;;;;617.30;595.83;;;;;;;;;;5033111;28;20216;-92
2023/09/03 10:09:36;;;;;;;750.28;721.03;;;;;;;;;;5036370;28;20241;-92
2023/09/03 10:12:06;;;;;;;770.97;739.55;;;;;;;;;;5044380;28;20295;-92
2023/09/03 10:14:38;;;;;;;803.75;770.30;;;;;;;;;;5042931;28;20299;-93
2023/09/03 10:17:06;;;;;;;772.22;740.38;;;;;;;;;;5053114;28;20304;-91
2023/09/03 10:19:43;;;;;;;769.92;738.88;;;;;;;;;;5017382;28;20211;-93
2023/09/03 10:22:14;;;;;;;788.03;755.38;;;;;;;;;;5034143;28;20166;-94
2023/09/03 10:24:41;;;;;;;808.95;775.10;;;;;;;;;;5015060;28;20205;-92
2023/09/03 10:27:12;;;;;;;778.22;747.05;;;;;;;;;;5031967;28;20170;-92
2023/09/03 10:29:40;;;;;;;781.15;749.38;;;;;;;;;;5013991;28;20232;-93
2023/09/03 10:32:07;;;;;;;790.05;757.55;;;;;;;;;;5039117;28;20232;-93
2023/09/03 10:34:36;;;;;;;804.58;770.78;;;;;;;;;;5028754;28;20192;-91
2023/09/03 10:37:05;;;;;;;785.65;753.88;;;;;;;;;;5029167;28;20207;-92
2023/09/03 10:39:31;;;;;;;774.17;743.33;;;;;;;;;;5034583;28;20245;-93
2023/09/03 10:42:18;;;;;;;793.30;760.88;;;;;;;;;;5041595;28;20205;-94
2023/09/03 10:44:45;;;;;;;819.10;784.17;;;;;;;;;;5034073;28;20225;-91
2023/09/03 10:47:14;;;;;;;834.53;798.42;;;;;;;;;;5036361;28;20172;-95
2023/09/03 10:49:40;;;;;;;850.40;812.28;;;;;;;;;;5053852;28;20246;-96
2023/09/03 10:52:25;;;;;;;1999.90;999.90;;;;;;;;;;5042127;28;20174;-93
2023/09/03 10:55:10;;;;;;;1999.90;999.90;;;;;;;;;;5036441;28;20212;-93
2023/09/03 10:57:36;;;;;;;1999.90;999.90;;;;;;;;;;5038653;28;20178;-94
2023/09/03 11:00:05;;;;;;;1999.90;999.90;;;;;;;;;;5054562;28;20201;-95
2023/09/03 11:02:31;;;;;;;1999.90;999.90;;;;;;;;;;5058414;28;20187;-95
2023/09/03 11:05:13;;;;;;;1999.90;999.90;;;;;;;;;;5057688;28;20175;-94
2023/09/03 11:07:42;;;;;;;1999.90;999.90;;;;;;;;;;5057638;28;20236;-94
2023/09/03 11:10:24;;;;;;;1999.90;999.90;;;;;;;;;;5059535;28;20212;-93
2023/09/03 11:12:51;;;;;;;1999.90;999.90;;;;;;;;;;5039984;28;20228;-92
2023/09/03 11:15:17;;;;;;;1999.90;999.90;;;;;;;;;;5054194;28;20259;-93
2023/09/03 11:17:50;;;;;;;1999.90;999.90;;;;;;;;;;5053696;28;20240;-92
2023/09/03 11:20:36;;;;;;;1999.90;999.90;;;;;;;;;;5049638;28;20268;-92
2023/09/03 11:23:02;;;;;;;1999.90;999.90;;;;;;;;;;5052722;28;20185;-92
2023/09/03 11:25:37;;;;;;;1999.90;999.90;;;;;;;;;;5048450;28;20180;-93
2023/09/03 11:28:07;;;;;;;1999.90;999.90;;;;;;;;;;5044796;28;20177;-91
2023/09/03 11:30:34;;;;;;;1999.90;999.90;;;;;;;;;;5044123;28;20571;-91
2023/09/03 11:33:00;;;;;;;1999.90;999.90;;;;;;;;;;5044605;28;20177;-93
2023/09/03 11:35:26;;;;;;;1999.90;999.90;;;;;;;;;;5045714;28;20193;-92
2023/09/03 11:37:53;;;;;;;1999.90;999.90;;;;;;;;;;5045944;28;20268;-92
2023/09/03 11:40:19;;;;;;;1999.90;999.90;;;;;;;;;;5041902;28;20197;-92
2023/09/03 11:42:49;;;;;;;1999.90;999.90;;;;;;;;;;5042242;28;20196;-92
2023/09/03 11:45:16;;;;;;;1999.90;999.90;;;;;;;;;;5041733;28;20197;-89
2023/09/03 11:47:49;;;;;;;1999.90;999.90;;;;;;;;;;5040747;28;20250;-90
2023/09/03 11:50:15;;;;;;;1999.90;999.90;;;;;;;;;;5031235;28;20206;-91
2023/09/03 11:52:54;;;;;;;1999.90;999.90;;;;;;;;;;5035829;28;20296;-91
2023/09/03 11:55:21;;;;;;;1999.90;999.90;;;;;;;;;;5035719;28;20266;-92
2023/09/03 11:57:47;;;;;;;1999.90;999.90;;;;;;;;;;5025138;28;20185;-92
2023/09/03 12:00:14;;;;;;;1999.90;999.90;;;;;;;;;;5042908;28;20208;-92
2023/09/03 12:02:41;;;;;;;1999.90;999.90;;;;;;;;;;5043243;28;20172;-90
2023/09/03 12:05:07;;;;;;;1999.90;999.90;;;;;;;;;;5043111;28;20231;-94
2023/09/03 12:07:33;;;;;;;1999.90;999.90;;;;;;;;;;5026001;28;20570;-91
2023/09/03 12:09:59;;;;;;;1999.90;999.90;;;;;;;;;;5033692;28;20208;-92
2023/09/03 12:12:25;;;;;;;1999.90;999.90;;;;;;;;;;5042435;28;20180;-92
2023/09/03 12:14:52;;;;;;;1999.90;999.90;;;;;;;;;;5048308;28;20680;-93
2023/09/03 12:17:27;;;;;;;1999.90;999.90;;;;;;;;;;5042831;28;20181;-91
2023/09/03 12:19:53;;;;;;;1999.90;999.90;;;;;;;;;;5043029;28;20497;-91
2023/09/03 12:22:19;;;;;;;1999.90;999.90;;;;;;;;;;5042450;28;20262;-91
2023/09/03 12:24:49;;;;;;;1999.90;999.90;;;;;;;;;;5042029;28;20173;-93
2023/09/03 12:27:16;;;;;;;1999.90;999.90;;;;;;;;;;5042777;28;20218;-91
2023/09/03 12:29:42;;;;;;;1999.90;999.90;;;;;;;;;;5041755;28;20205;-93
2023/09/03 12:32:09;;;;;;;1999.90;999.90;;;;;;;;;;5042511;28;20184;-93
2023/09/03 12:34:36;;;;;;;1999.90;999.90;;;;;;;;;;5040382;28;20208;-91
2023/09/03 12:37:03;;;;;;;1999.90;999.90;;;;;;;;;;5042332;28;20173;-92
2023/09/03 12:39:33;;;;;;;1999.90;999.90;;;;;;;;;;5042059;28;20209;-92
2023/09/03 12:41:59;;;;;;;1999.90;999.90;;;;;;;;;;5043261;28;20208;-92
2023/09/03 12:44:28;;;;;;;1999.90;999.90;;;;;;;;;;5042756;28;20192;-92
2023/09/03 12:46:58;;;;;;;1999.90;999.90;;;;;;;;;;5043610;28;20185;-91
2023/09/03 12:49:25;;;;;;;1999.90;999.90;;;;;;;;;;5031207;28;20186;-91
2023/09/03 12:51:52;;;;;;;1999.90;999.90;;;;;;;;;;5045527;28;20200;-92
2023/09/03 12:54:18;;;;;;;1999.90;999.90;;;;;;;;;;5043879;28;20200;-91
2023/09/03 12:56:44;;;;;;;1999.90;999.90;;;;;;;;;;5042760;28;20253;-92
2023/09/03 12:59:10;;;;;;;1999.90;999.90;;;;;;;;;;5043447;28;20169;-92
2023/09/03 13:01:38;;;;;;;1999.90;999.90;;;;;;;;;;5041812;28;20227;-93
2023/09/03 13:04:06;;;;;;;1999.90;999.90;;;;;;;;;;5042017;28;20184;-93
2023/09/03 13:06:32;;;;;;;1999.90;999.90;;;;;;;;;;5042843;28;20212;-93
2023/09/03 13:08:58;;;;;;;1999.90;999.90;;;;;;;;;;5045169;28;20184;-90
2023/09/03 13:11:24;;;;;;;1999.90;999.90;;;;;;;;;;5063571;28;20196;-92
2023/09/03 13:13:50;;;;;;;1999.90;999.90;;;;;;;;;;5062301;28;20204;-93
2023/09/03 13:16:20;;;;;;;1999.90;999.90;;;;;;;;;;5065157;28;20295;-91
2023/09/03 13:18:48;;;;;;;1999.90;999.90;;;;;;;;;;5066141;28;20168;-91
2023/09/03 13:21:16;;;;;;;1999.90;999.90;;;;;;;;;;5062885;28;20198;-93
2023/09/03 13:23:42;;;;;;;1999.90;999.90;;;;;;;;;;5062821;28;20215;-92
2023/09/03 13:26:08;;;;;;;1999.90;999.90;;;;;;;;;;5061980;28;20180;-89
2023/09/03 13:28:34;;;;;;;1999.90;999.90;;;;;;;;;;5058813;28;20191;-91
2023/09/03 13:31:01;;;;;;;1999.90;999.90;;;;;;;;;;5039637;28;20618;-93
2023/09/03 13:33:28;;;;;;;1999.90;999.90;;;;;;;;;;5034652;28;20571;-89
2023/09/03 13:35:54;;;;;;;1999.90;999.90;;;;;;;;;;5041396;28;20520;-92
2023/09/03 13:38:20;;;;;;;1999.90;999.90;;;;;;;;;;5041196;28;20176;-91
2023/09/03 13:40:47;;;;;;;1999.90;999.90;;;;;;;;;;5040774;28;20204;-93
2023/09/03 13:43:14;;;;;;;1999.90;999.90;;;;;;;;;;5034895;28;20209;-91
2023/09/03 13:45:40;;;;;;;1999.90;999.90;;;;;;;;;;5022032;28;20170;-92
2023/09/03 13:48:06;;;;;;;1999.90;999.90;;;;;;;;;;5022335;28;20636;-93
2023/09/03 13:50:32;;;;;;;1999.90;999.90;;;;;;;;;;5021560;28;20204;-92
2023/09/03 13:52:59;;;;;;;1999.90;999.90;;;;;;;;;;5024830;28;20193;-92
2023/09/03 13:55:25;;;;;;;1999.90;999.90;;;;;;;;;;5029430;28;20231;-92
2023/09/03 13:57:52;;;;;;;1999.90;999.90;;;;;;;;;;5041073;28;20177;-93
2023/09/03 14:00:18;;;;;;;1999.90;999.90;;;;;;;;;;5026784;28;20205;-92